Time;durP1;ratioP1;P1;durP2;ratioP2;P2;SDS_P1;SDS_P2;PMS_P1;PMS_P2;Temp;Humidity;BMP_temperature;BMP_pressure;BME280_temperature;BME280_humidity;BME280_pressure;Samples;Min_cycle;Max_cycle;Signal;HPM_P1;HPM_P2
2023/10/14 00:00:26;;;;;;;13.57;5.68;;;;;;;20.21;76.85;99654.66;4996156;28;20068;-60
2023/10/14 00:02:52;;;;;;;14.80;6.50;;;;;;;20.24;76.36;99661.47;4998011;28;20026;-60
2023/10/14 00:05:19;;;;;;;12.13;5.78;;;;;;;20.27;76.14;99669.16;4998716;28;20054;-60
2023/10/14 00:07:45;;;;;;;13.70;5.63;;;;;;;20.31;75.66;99647.84;5000829;28;20034;-60
2023/10/14 00:10:12;;;;;;;13.90;5.88;;;;;;;20.33;75.18;99640.72;4999395;28;20048;-60
2023/10/14 00:12:39;;;;;;;15.60;5.78;;;;;;;20.33;75.08;99642.50;4999475;28;20029;-60
2023/10/14 00:15:06;;;;;;;18.70;6.25;;;;;;;20.38;73.67;99619.41;4998792;28;20710;-60
2023/10/14 00:17:37;;;;;;;13.38;5.80;;;;;;;20.35;73.59;99625.72;4995517;28;20046;-60
2023/10/14 00:20:03;;;;;;;15.18;5.38;;;;;;;20.36;73.29;99627.41;4998362;28;20880;-60
2023/10/14 00:22:29;;;;;;;22.85;6.63;;;;;;;20.42;72.87;99631.41;4997460;28;20042;-60
2023/10/14 00:24:58;;;;;;;17.83;5.57;;;;;;;20.42;72.65;99619.09;4996625;28;20103;-63
2023/10/14 00:27:24;;;;;;;15.40;5.55;;;;;;;20.45;72.08;99611.00;4998660;28;20034;-62
2023/10/14 00:30:05;;;;;;;15.52;5.82;;;;;;;20.50;72.13;99613.34;4998680;28;20037;-60
2023/10/14 00:32:30;;;;;;;16.60;5.25;;;;;;;20.52;71.68;99603.56;4995366;28;20156;-60
2023/10/14 00:34:56;;;;;;;10.60;4.63;;;;;;;20.51;71.46;99601.91;5013575;28;20045;-60
2023/10/14 00:37:21;;;;;;;14.02;4.57;;;;;;;20.48;71.48;99605.56;5014791;28;20045;-60
2023/10/14 00:40:00;;;;;;;15.75;5.82;;;;;;;20.51;71.16;99602.72;5019008;28;20459;-60
2023/10/14 00:42:26;;;;;;;14.93;5.05;;;;;;;20.54;70.82;99601.72;5012890;28;20377;-60
2023/10/14 00:44:51;;;;;;;13.90;4.97;;;;;;;20.58;70.25;99598.75;5019499;28;20483;-60
2023/10/14 00:47:17;;;;;;;10.45;4.70;;;;;;;20.57;70.44;99617.25;5014013;28;20041;-60
2023/10/14 00:49:42;;;;;;;11.75;4.82;;;;;;;20.54;70.88;99617.47;5013793;28;20034;-60
2023/10/14 00:52:15;;;;;;;11.02;4.50;;;;;;;20.50;70.56;99611.56;5009133;28;20084;-60
2023/10/14 00:59:47;;;;;;;9.07;4.85;;;;;;;20.53;69.94;99594.75;5014085;28;20798;-60
2023/10/14 01:02:14;;;;;;;9.98;3.60;;;;;;;20.51;70.12;99605.34;5019693;28;20072;-59
2023/10/14 01:04:40;;;;;;;8.73;3.60;;;;;;;20.53;69.17;99597.38;5018274;28;20542;-60
2023/10/14 01:07:12;;;;;;;17.40;4.32;;;;;;;20.56;68.87;99603.28;5016094;28;20033;-60
2023/10/14 01:14:44;;;;;;;11.50;3.45;;;;;;;20.55;68.70;99601.59;5013863;28;20072;-60
2023/10/14 01:17:31;;;;;;;8.70;3.50;;;;;;;20.50;69.64;99622.06;5014675;28;20045;-60
2023/10/14 01:22:38;;;;;;;11.20;3.53;;;;;;;20.48;69.59;99612.63;5017875;28;20033;-60
2023/10/14 01:25:08;;;;;;;9.68;3.33;;;;;;;20.48;69.35;99597.69;5016989;28;20295;-60
2023/10/14 01:27:34;;;;;;;6.28;3.03;;;;;;;20.44;69.79;99621.63;5015797;28;20068;-59
2023/10/14 01:29:59;;;;;;;7.65;3.60;;;;;;;20.40;70.46;99636.75;5014316;28;20086;-60
2023/10/14 01:35:20;;;;;;;5.95;2.70;;;;;;;20.28;72.45;99666.41;5013792;28;20128;-60
2023/10/14 01:37:45;;;;;;;7.85;2.75;;;;;;;20.22;72.38;99669.44;5029137;28;20033;-60
2023/10/14 01:40:27;;;;;;;6.88;2.35;;;;;;;20.17;72.82;99676.78;5016401;28;20056;-60
2023/10/14 01:42:57;;;;;;;5.60;2.40;;;;;;;20.10;74.75;99704.34;5018662;28;20050;-60
2023/10/14 01:45:31;;;;;;;9.82;2.72;;;;;;;19.63;83.05;99731.75;5014222;28;21065;-71
2023/10/14 01:48:11;;;;;;;7.05;2.70;;;;;;;19.18;86.45;99710.13;5020798;28;20033;-71
2023/10/14 01:50:38;;;;;;;7.95;3.05;;;;;;;18.89;87.87;99707.47;5018653;28;20095;-69
2023/10/14 01:53:17;;;;;;;8.25;2.90;;;;;;;18.71;89.15;99698.03;5013389;28;20038;-69
2023/10/14 01:55:42;;;;;;;7.63;2.75;;;;;;;18.58;91.13;99699.72;5018228;28;20049;-71
2023/10/14 01:58:12;;;;;;;7.60;2.63;;;;;;;18.47;92.42;99700.31;5017052;28;20045;-70
2023/10/14 02:00:39;;;;;;;8.35;2.53;;;;;;;18.34;93.87;99698.50;5018629;28;20133;-71
2023/10/14 02:03:08;;;;;;;7.28;2.55;;;;;;;18.25;95.03;99704.25;5024885;28;20766;-70
2023/10/14 02:05:39;;;;;;;7.93;2.78;;;;;;;18.18;95.45;99700.28;5027688;28;20049;-71
2023/10/14 02:08:13;;;;;;;11.95;2.97;;;;;;;18.11;96.22;99702.38;5018207;28;20111;-70
2023/10/14 02:10:38;;;;;;;8.27;2.47;;;;;;;18.06;96.84;99693.97;5021493;28;20071;-70
2023/10/14 02:13:03;;;;;;;6.03;2.08;;;;;;;18.04;97.24;99693.22;5020509;28;20037;-71
2023/10/14 02:15:29;;;;;;;5.32;2.10;;;;;;;18.11;95.80;99688.47;5017852;28;20057;-70
2023/10/14 02:17:54;;;;;;;8.02;2.03;;;;;;;18.08;96.57;99701.75;5021594;28;20459;-69
2023/10/14 02:20:28;;;;;;;6.20;1.90;;;;;;;18.11;96.14;99693.69;5018977;28;20046;-69
2023/10/14 02:22:57;;;;;;;4.40;1.90;;;;;;;18.14;95.45;99703.97;5015794;28;20034;-71
2023/10/14 02:25:27;;;;;;;4.95;1.50;;;;;;;18.07;97.42;99693.03;5022598;28;20033;-71
2023/10/14 02:27:54;;;;;;;4.32;1.60;;;;;;;18.00;98.85;99693.47;5019039;28;20048;-70
2023/10/14 02:30:19;;;;;;;3.75;1.65;;;;;;;17.90;99.86;99693.97;5015773;28;20064;-70
2023/10/14 02:32:45;;;;;;;7.55;2.42;;;;;;;17.89;100.00;99696.69;5024329;28;20034;-70
2023/10/14 02:35:12;;;;;;;4.15;1.52;;;;;;;17.86;100.00;99691.63;5016011;28;20590;-70
2023/10/14 02:37:37;;;;;;;5.38;1.85;;;;;;;17.85;100.00;99693.38;5018813;28;20033;-70
2023/10/14 02:40:08;;;;;;;3.45;1.60;;;;;;;17.81;100.00;99686.59;5019869;28;20060;-70
2023/10/14 02:42:33;;;;;;;7.93;1.20;;;;;;;17.81;100.00;99670.09;5026183;28;20044;-69
2023/10/14 02:45:03;;;;;;;3.05;1.35;;;;;;;17.81;100.00;99683.97;5017453;28;20033;-69
2023/10/14 02:47:32;;;;;;;4.10;1.30;;;;;;;17.88;99.85;99684.53;5013510;28;20064;-69
2023/10/14 02:50:11;;;;;;;5.00;1.10;;;;;;;17.93;98.78;99678.09;5017058;28;20033;-69
2023/10/14 02:52:39;;;;;;;3.97;1.10;;;;;;;18.00;98.51;99722.22;5019413;28;20053;-68
2023/10/14 02:55:25;;;;;;;4.50;1.30;;;;;;;17.96;100.00;99797.38;5020601;28;20041;-71
2023/10/14 02:57:51;;;;;;;0.95;0.50;;;;;;;17.49;100.00;99828.59;5024533;28;20124;-70
2023/10/14 03:03:02;;;;;;;4.38;0.90;;;;;;;16.75;100.00;99866.22;5022027;28;21280;-65
2023/10/14 03:05:42;;;;;;;2.30;1.00;;;;;;;16.50;100.00;99871.78;5020087;28;20048;-64
2023/10/14 03:08:12;;;;;;;1.90;1.00;;;;;;;16.32;100.00;99896.09;5014544;28;20057;-65
2023/10/14 03:10:44;;;;;;;2.50;1.00;;;;;;;16.10;100.00;99900.56;5020086;28;20101;-66
2023/10/14 03:13:13;;;;;;;2.33;1.05;;;;;;;15.91;100.00;99915.34;5021538;28;20072;-66
2023/10/14 03:15:42;;;;;;;1.95;1.00;;;;;;;15.82;100.00;99926.16;5016784;28;20042;-66
2023/10/14 03:18:07;;;;;;;1.77;0.95;;;;;;;15.68;100.00;99931.94;5013591;28;20060;-66
2023/10/14 03:20:36;;;;;;;2.00;0.90;;;;;;;15.55;100.00;99936.78;4994168;28;20121;-67
2023/10/14 03:23:11;;;;;;;1.13;0.65;;;;;;;15.42;100.00;99950.38;4993645;28;20033;-67
2023/10/14 03:25:39;;;;;;;1.08;0.55;;;;;;;15.39;100.00;99966.13;5016030;28;20045;-66
2023/10/14 03:30:37;;;;;;;0.70;0.50;;;;;;;15.31;100.00;100000.31;5017432;28;20037;-67
2023/10/14 03:33:09;;;;;;;1.00;0.50;;;;;;;15.24;100.00;99998.84;5018812;28;20033;-68
2023/10/14 03:35:34;;;;;;;0.45;0.38;;;;;;;15.18;100.00;100007.75;5017731;28;20571;-66
2023/10/14 03:38:05;;;;;;;2.05;0.50;;;;;;;15.15;100.00;100018.28;5020467;28;20042;-67
2023/10/14 03:43:15;;;;;;;0.90;0.50;;;;;;;15.03;100.00;100038.72;5023617;28;20071;-72
2023/10/14 03:46:14;;;;;;;1.92;0.50;;;;;;;15.00;100.00;100051.84;5019704;28;20705;-72
2023/10/14 03:48:37;;;;;;;1.00;0.68;;;;;;;14.95;100.00;100046.84;5021142;28;20669;-72
2023/10/14 03:51:05;;;;;;;1.63;0.75;;;;;;;14.96;100.00;100055.50;5024675;28;20029;-71
2023/10/14 03:53:33;;;;;;;0.95;0.57;;;;;;;14.93;100.00;100069.44;5028775;28;20044;-70
2023/10/14 03:56:00;;;;;;;0.95;0.70;;;;;;;14.93;100.00;100073.81;5018407;28;20104;-69
2023/10/14 03:58:29;;;;;;;1.13;0.65;;;;;;;14.93;100.00;100084.22;5021262;28;20033;-71
2023/10/14 04:00:56;;;;;;;1.02;0.70;;;;;;;14.88;100.00;100089.59;5020817;28;20041;-71
2023/10/14 04:03:39;;;;;;;1.75;0.80;;;;;;;14.87;100.00;100102.66;5019747;28;20033;-69
2023/10/14 04:06:08;;;;;;;0.95;0.77;;;;;;;14.82;100.00;100107.16;5021086;28;20064;-72
2023/10/14 04:08:47;;;;;;;2.35;0.80;;;;;;;14.82;100.00;100130.59;5016280;28;20091;-70
2023/10/14 04:11:15;;;;;;;1.23;0.70;;;;;;;14.74;100.00;100146.47;5017638;28;20048;-70
2023/10/14 04:13:50;;;;;;;1.35;0.80;;;;;;;14.64;100.00;100158.94;5008084;28;20044;-71
2023/10/14 04:16:18;;;;;;;3.50;1.05;;;;;;;14.47;100.00;100160.44;5000391;28;21098;-70
2023/10/14 04:18:46;;;;;;;1.77;0.90;;;;;;;14.41;100.00;100169.28;4997727;28;20045;-68
2023/10/14 04:26:34;;;;;;;4.85;1.50;;;;;;;14.24;100.00;100189.78;4991335;28;20038;-71
2023/10/14 04:29:02;;;;;;;2.53;1.10;;;;;;;14.22;100.00;100203.72;4997300;28;20041;-68
2023/10/14 04:31:39;;;;;;;4.18;1.00;;;;;;;14.18;100.00;100215.09;5000000;28;20034;-69
2023/10/14 04:34:07;;;;;;;4.15;1.20;;;;;;;14.08;100.00;100243.13;4997417;28;20034;-67
2023/10/14 04:36:37;;;;;;;4.90;1.50;;;;;;;13.63;100.00;100244.50;4995550;28;20037;-66
2023/10/14 04:39:14;;;;;;;7.07;1.88;;;;;;;13.33;100.00;100248.81;5000942;28;20041;-66
2023/10/14 04:42:27;;;;;;;10.27;2.60;;;;;;;13.07;100.00;100275.47;5003656;28;20069;-68
2023/10/14 04:44:37;;;;;;;11.05;2.35;;;;;;;12.82;100.00;100288.19;5012922;28;20041;-68
2023/10/14 04:47:04;;;;;;;11.80;2.28;;;;;;;12.77;100.00;100273.63;5000141;28;20046;-68
2023/10/14 04:49:42;;;;;;;16.85;3.47;;;;;;;12.72;100.00;100288.47;4999965;28;21033;-68
2023/10/14 04:52:08;;;;;;;15.20;2.58;;;;;;;12.63;100.00;100278.31;5009026;28;20152;-68
2023/10/14 04:54:51;;;;;;;13.20;2.65;;;;;;;12.59;100.00;100281.84;5019387;28;20152;-67
2023/10/14 04:57:20;;;;;;;14.43;3.33;;;;;;;12.58;100.00;100298.31;5014089;28;20039;-68
2023/10/14 04:59:51;;;;;;;18.92;3.13;;;;;;;12.56;100.00;100295.75;5009916;28;20029;-67
2023/10/14 05:02:20;;;;;;;16.30;3.38;;;;;;;12.60;100.00;100306.91;5010886;28;20504;-66
2023/10/14 05:04:47;;;;;;;14.18;3.15;;;;;;;12.62;100.00;100318.94;5017566;28;20076;-66
2023/10/14 05:07:13;;;;;;;15.15;2.42;;;;;;;12.63;100.00;100325.84;5016423;28;20164;-66
2023/10/14 05:09:42;;;;;;;16.35;2.70;;;;;;;12.64;100.00;100339.66;5014239;28;20038;-66
2023/10/14 05:12:08;;;;;;;11.57;2.45;;;;;;;12.65;100.00;100346.53;5016783;28;20043;-66
2023/10/14 05:14:36;;;;;;;12.48;2.30;;;;;;;12.65;100.00;100351.72;4995680;28;20045;-66
2023/10/14 05:17:14;;;;;;;16.17;3.25;;;;;;;12.67;100.00;100355.97;5002050;28;20046;-66
2023/10/14 05:19:43;;;;;;;7.60;2.10;;;;;;;12.70;100.00;100366.28;4996356;28;20093;-66
2023/10/14 05:22:19;;;;;;;11.27;2.75;;;;;;;12.72;100.00;100371.44;4995758;28;20675;-66
2023/10/14 05:24:48;;;;;;;10.30;2.80;;;;;;;12.75;100.00;100371.38;4993525;28;20056;-66
2023/10/14 05:27:17;;;;;;;12.85;3.30;;;;;;;12.71;100.00;100388.72;4996454;28;20040;-66
2023/10/14 05:29:50;;;;;;;14.93;2.67;;;;;;;12.69;100.00;100393.13;5015708;28;20132;-66
2023/10/14 05:32:18;;;;;;;12.48;2.25;;;;;;;12.68;100.00;100386.22;5015810;28;20148;-65
2023/10/14 05:34:44;;;;;;;20.08;2.65;;;;;;;12.68;100.00;100399.19;5017915;28;20445;-65
2023/10/14 05:37:14;;;;;;;15.15;3.00;;;;;;;12.71;100.00;100400.84;5016389;28;20045;-65
2023/10/14 05:39:40;;;;;;;18.25;3.08;;;;;;;12.72;100.00;100403.41;5015063;28;20110;-65
2023/10/14 05:42:16;;;;;;;11.55;3.35;;;;;;;12.72;100.00;100400.81;5007867;28;20130;-65
2023/10/14 05:44:49;;;;;;;18.63;3.08;;;;;;;12.72;100.00;100410.34;5017823;28;20041;-65
2023/10/14 05:47:15;;;;;;;11.13;2.53;;;;;;;12.71;100.00;100414.66;5014900;28;20072;-65
2023/10/14 05:49:40;;;;;;;14.70;2.25;;;;;;;12.72;100.00;100418.13;5015686;28;20045;-65
2023/10/14 05:52:06;;;;;;;14.45;2.50;;;;;;;12.72;100.00;100420.72;5016575;28;20763;-64
2023/10/14 05:54:31;;;;;;;17.02;2.70;;;;;;;12.69;100.00;100415.59;5013547;28;20508;-65
2023/10/14 05:56:56;;;;;;;11.85;2.05;;;;;;;12.67;100.00;100432.94;5011470;28;20091;-65
2023/10/14 05:59:22;;;;;;;18.65;3.03;;;;;;;12.65;100.00;100440.72;5016153;28;20643;-65
2023/10/14 06:01:48;;;;;;;8.63;2.20;;;;;;;12.65;100.00;100432.09;5012907;28;20041;-64
2023/10/14 06:04:14;;;;;;;12.05;2.42;;;;;;;12.66;100.00;100439.00;5017361;28;20099;-64
2023/10/14 06:06:42;;;;;;;9.02;2.50;;;;;;;12.67;100.00;100448.50;5016392;28;21979;-65
2023/10/14 06:09:09;;;;;;;18.55;3.25;;;;;;;12.67;100.00;100456.28;5015905;28;20914;-65
2023/10/14 06:11:34;;;;;;;12.35;2.80;;;;;;;12.63;100.00;100468.44;5015173;28;20044;-64
2023/10/14 06:14:02;;;;;;;13.98;2.67;;;;;;;12.66;100.00;100476.16;4997872;28;20412;-64
2023/10/14 06:16:29;;;;;;;14.77;2.67;;;;;;;12.65;100.00;100484.81;4988944;28;20766;-64
2023/10/14 06:18:56;;;;;;;8.32;2.53;;;;;;;12.59;100.00;100477.16;4992994;28;20505;-64
2023/10/14 06:21:27;;;;;;;19.02;3.05;;;;;;;12.58;100.00;100493.63;4996518;28;20026;-67
2023/10/14 06:23:53;;;;;;;17.45;2.47;;;;;;;12.61;100.00;100492.72;4994915;28;20036;-67
2023/10/14 06:26:18;;;;;;;15.10;2.80;;;;;;;12.60;100.00;100497.03;4996756;28;20104;-68
2023/10/14 06:28:44;;;;;;;14.65;3.13;;;;;;;12.60;100.00;100502.22;4994063;28;20488;-67
2023/10/14 06:31:11;;;;;;;18.98;2.67;;;;;;;12.60;100.00;100510.00;4995600;28;20046;-67
2023/10/14 06:33:40;;;;;;;11.55;2.28;;;;;;;12.59;100.00;100510.88;4994059;28;20038;-67
2023/10/14 06:36:13;;;;;;;12.98;2.92;;;;;;;12.58;100.00;100516.97;4995194;28;20112;-67
2023/10/14 06:38:44;;;;;;;15.60;2.90;;;;;;;12.56;100.00;100521.31;4993760;28;20056;-67
2023/10/14 06:41:11;;;;;;;10.63;3.22;;;;;;;12.58;100.00;100523.88;4994100;28;20076;-62
2023/10/14 06:43:38;;;;;;;13.63;2.90;;;;;;;12.60;100.00;100530.75;4993159;28;20061;-62
2023/10/14 06:46:04;;;;;;;18.05;2.47;;;;;;;12.59;100.00;100541.97;4993433;28;20053;-62
2023/10/14 06:48:30;;;;;;;16.23;2.33;;;;;;;12.58;100.00;100549.81;4991639;28;20045;-62
2023/10/14 06:50:56;;;;;;;11.32;2.70;;;;;;;12.59;100.00;100535.94;4990521;28;20033;-62
2023/10/14 06:53:21;;;;;;;9.73;2.58;;;;;;;12.62;100.00;100538.47;4995128;28;20053;-62
2023/10/14 06:55:46;;;;;;;14.02;2.33;;;;;;;12.65;100.00;100544.47;4995831;28;20040;-63
2023/10/14 06:58:21;;;;;;;16.02;2.97;;;;;;;12.65;100.00;100553.97;4989292;28;20050;-63
2023/10/14 07:00:48;;;;;;;11.25;2.58;;;;;;;12.67;98.92;100557.41;4985845;28;20045;-62
2023/10/14 07:03:14;;;;;;;15.20;3.17;;;;;;;12.69;99.48;100558.22;4991077;28;20682;-62
2023/10/14 07:05:46;;;;;;;14.10;2.42;;;;;;;12.72;100.00;100572.00;5015420;28;20091;-62
2023/10/14 07:08:13;;;;;;;13.98;2.50;;;;;;;12.73;99.68;100570.25;5012623;28;20098;-63
2023/10/14 07:10:39;;;;;;;13.32;2.90;;;;;;;12.77;99.02;100574.47;5013850;28;20452;-62
2023/10/14 07:13:05;;;;;;;17.67;2.45;;;;;;;12.81;98.83;100581.31;5014032;28;20099;-62
2023/10/14 07:15:35;;;;;;;13.77;2.72;;;;;;;12.86;98.87;100588.13;5014045;28;20065;-62
2023/10/14 07:18:01;;;;;;;14.32;2.78;;;;;;;12.90;99.65;100596.69;5011156;28;20041;-62
2023/10/14 07:20:30;;;;;;;16.58;3.88;;;;;;;12.91;100.00;100599.25;5014397;28;20052;-62
2023/10/14 07:23:01;;;;;;;13.40;3.90;;;;;;;12.89;98.94;100603.63;5013385;28;20041;-62
2023/10/14 07:25:30;;;;;;;15.68;3.20;;;;;;;12.93;96.80;100604.41;5012055;28;20091;-62
2023/10/14 07:27:59;;;;;;;9.20;2.83;;;;;;;12.94;97.76;100612.16;5008627;28;20873;-62
2023/10/14 07:30:27;;;;;;;9.15;2.85;;;;;;;12.95;95.90;100613.88;5012375;28;20042;-65
2023/10/14 07:32:54;;;;;;;15.15;2.83;;;;;;;12.97;95.36;100619.88;5015588;28;20645;-64
2023/10/14 07:35:19;;;;;;;13.18;2.75;;;;;;;12.98;95.51;100621.59;5017309;28;20037;-64
2023/10/14 07:37:48;;;;;;;14.70;3.67;;;;;;;12.99;95.65;100627.63;5017437;28;20057;-64
2023/10/14 07:40:24;;;;;;;10.77;2.47;;;;;;;13.01;94.94;100633.69;5013126;28;20088;-64
2023/10/14 07:42:54;;;;;;;15.05;3.22;;;;;;;13.06;95.14;100637.03;5010719;28;20401;-64
2023/10/14 07:45:29;;;;;;;17.48;2.72;;;;;;;13.04;94.05;100636.22;5011617;28;20025;-65
2023/10/14 07:47:56;;;;;;;16.92;3.05;;;;;;;13.08;94.84;100644.78;5013930;28;20087;-64
2023/10/14 07:50:22;;;;;;;14.93;2.67;;;;;;;13.10;94.81;100643.00;5011101;28;20040;-64
2023/10/14 07:52:48;;;;;;;12.60;2.53;;;;;;;13.10;95.16;100641.28;5012380;28;20037;-65
2023/10/14 07:55:20;;;;;;;15.48;2.85;;;;;;;13.11;94.72;100644.72;5014423;28;20111;-65
2023/10/14 07:57:48;;;;;;;12.18;2.58;;;;;;;13.14;93.96;100655.03;5014070;28;20335;-64
2023/10/14 08:00:14;;;;;;;12.25;2.13;;;;;;;13.13;93.03;100669.75;5007277;28;20033;-65
2023/10/14 08:02:41;;;;;;;12.77;2.50;;;;;;;13.14;92.48;100658.50;5010891;28;20025;-65
2023/10/14 08:05:08;;;;;;;12.02;2.95;;;;;;;13.12;92.16;100675.81;5011150;28;20108;-69
2023/10/14 08:07:40;;;;;;;8.77;2.35;;;;;;;13.15;92.18;100680.13;5010946;28;20045;-68
2023/10/14 08:10:18;;;;;;;9.70;2.22;;;;;;;13.19;93.00;100690.41;5012871;28;20048;-69
2023/10/14 08:12:51;;;;;;;19.55;3.10;;;;;;;13.23;90.54;100678.22;5016277;28;20179;-68
2023/10/14 08:15:19;;;;;;;13.30;3.17;;;;;;;13.29;90.24;100671.16;5011077;28;20029;-68
2023/10/14 08:17:48;;;;;;;16.77;3.35;;;;;;;13.43;91.20;100684.69;5016491;28;20048;-67
2023/10/14 08:20:14;;;;;;;13.07;2.88;;;;;;;13.49;89.48;100676.78;5019914;28;20041;-68
2023/10/14 08:22:41;;;;;;;11.73;2.95;;;;;;;13.52;90.26;100688.84;5013560;28;20087;-69
2023/10/14 08:25:07;;;;;;;9.88;2.28;;;;;;;13.61;88.04;100687.78;5017361;28;20885;-69
2023/10/14 08:27:34;;;;;;;11.38;2.95;;;;;;;13.65;86.83;100679.91;5017638;28;20052;-68
2023/10/14 08:30:00;;;;;;;13.73;2.85;;;;;;;13.79;88.08;100701.22;5010945;28;20033;-68
2023/10/14 08:32:26;;;;;;;10.63;2.63;;;;;;;13.82;85.11;100688.16;5020401;28;20037;-68
2023/10/14 08:34:51;;;;;;;9.30;2.58;;;;;;;13.79;83.97;100683.03;5021082;28;20071;-68
2023/10/14 08:37:17;;;;;;;10.95;2.53;;;;;;;13.81;84.50;100686.44;5021533;28;20144;-70
2023/10/14 08:39:44;;;;;;;13.23;2.70;;;;;;;13.89;84.36;100691.47;5022324;28;20440;-69
2023/10/14 08:42:10;;;;;;;15.27;2.78;;;;;;;13.80;82.71;100684.72;5020032;28;20059;-68
2023/10/14 08:44:42;;;;;;;13.70;2.85;;;;;;;13.71;81.91;100689.31;5011506;28;20075;-68
2023/10/14 08:47:13;;;;;;;6.90;2.10;;;;;;;13.62;80.83;100674.78;4997866;28;20044;-69
2023/10/14 08:49:41;;;;;;;14.23;2.83;;;;;;;13.68;80.99;100699.75;4998600;28;20041;-68
2023/10/14 08:52:09;;;;;;;11.27;3.35;;;;;;;13.76;81.92;100718.63;4997648;28;20696;-68
2023/10/14 08:54:37;;;;;;;13.00;3.08;;;;;;;13.87;82.56;100727.03;4998816;28;20073;-69
2023/10/14 08:57:03;;;;;;;10.48;3.40;;;;;;;13.95;82.09;100722.53;4995285;28;20034;-69
2023/10/14 08:59:28;;;;;;;7.65;2.85;;;;;;;13.93;80.76;100703.50;4993376;28;20563;-69
2023/10/14 09:01:56;;;;;;;10.13;2.63;;;;;;;13.94;79.68;100697.41;4993682;28;20097;-68
2023/10/14 09:04:29;;;;;;;14.55;2.88;;;;;;;13.95;79.32;100710.38;4997765;28;20034;-63
2023/10/14 09:07:02;;;;;;;13.88;3.65;;;;;;;14.00;79.29;100712.88;4995301;28;20115;-63
2023/10/14 09:09:27;;;;;;;9.43;3.20;;;;;;;14.08;79.46;100724.78;4999677;28;20053;-63
2023/10/14 09:11:53;;;;;;;14.05;3.47;;;;;;;14.26;79.66;100730.44;4989937;28;20441;-63
2023/10/14 09:14:18;;;;;;;10.43;2.65;;;;;;;14.31;78.13;100721.63;5022775;28;20174;-63
2023/10/14 09:16:53;;;;;;;16.52;3.25;;;;;;;14.42;77.36;100706.69;5019374;28;20796;-63
2023/10/14 09:19:18;;;;;;;;;;;;;;;14.18;76.50;100706.38;5011674;28;22046;-63
2023/10/14 09:21:45;;;;;;;21.00;3.08;;;;;;;14.16;75.27;100696.00;5021370;28;19928;-63
2023/10/14 09:24:11;;;;;;;10.93;2.72;;;;;;;14.26;76.41;100720.03;5018461;28;20048;-63
2023/10/14 09:26:43;;;;;;;14.32;3.35;;;;;;;14.39;75.46;100691.16;5017861;28;20022;-63
2023/10/14 09:29:09;;;;;;;11.90;3.72;;;;;;;14.45;75.09;100698.81;5018137;28;20729;-62
2023/10/14 09:31:39;;;;;;;13.55;3.28;;;;;;;14.57;74.20;100693.25;5020617;28;20045;-64
2023/10/14 09:34:08;;;;;;;13.82;2.88;;;;;;;14.64;72.16;100658.41;5016776;28;20041;-65
2023/10/14 09:36:35;;;;;;;9.65;2.50;;;;;;;14.71;72.26;100666.03;5022737;28;20029;-64
2023/10/14 09:39:13;;;;;;;16.35;3.05;;;;;;;14.76;72.08;100675.44;5021274;28;20025;-62
2023/10/14 09:41:39;;;;;;;13.48;2.67;;;;;;;14.84;72.04;100675.25;5011729;28;20069;-64
2023/10/14 09:44:06;;;;;;;13.50;2.88;;;;;;;14.96;71.91;100674.91;4997610;28;20120;-64
2023/10/14 09:46:34;;;;;;;11.25;2.80;;;;;;;15.04;71.67;100675.53;4992222;28;20120;-64
2023/10/14 09:49:01;;;;;;;7.78;2.58;;;;;;;15.10;70.67;100655.41;4991664;28;20508;-64
2023/10/14 09:51:27;;;;;;;17.58;3.30;;;;;;;15.20;69.73;100651.63;5001448;28;20044;-63
2023/10/14 09:53:53;;;;;;;13.48;3.50;;;;;;;15.30;70.76;100666.97;5013428;28;20029;-64
2023/10/14 09:56:21;;;;;;;13.00;3.40;;;;;;;15.39;68.92;100632.84;5015288;28;20088;-64
2023/10/14 09:58:47;;;;;;;16.30;3.53;;;;;;;15.49;67.96;100629.06;5018048;28;20041;-64
2023/10/14 10:01:14;;;;;;;11.75;2.63;;;;;;;15.50;68.14;100638.56;5019871;28;20037;-64
2023/10/14 10:03:48;;;;;;;10.15;3.08;;;;;;;15.32;67.28;100633.91;5016208;28;20041;-65
2023/10/14 10:06:49;;;;;;;10.57;2.28;;;;;;;15.47;69.54;100681.22;5018670;28;20025;-64
2023/10/14 10:09:26;;;;;;;8.80;2.58;;;;;;;15.68;68.78;100682.34;5016493;28;20025;-64
2023/10/14 10:11:54;;;;;;;13.32;2.97;;;;;;;15.72;67.75;100644.88;5019015;28;20512;-64
2023/10/14 10:14:20;;;;;;;10.27;2.42;;;;;;;16.00;67.43;100652.69;5021220;28;20045;-64
2023/10/14 10:16:52;;;;;;;19.23;4.00;;;;;;;16.23;66.02;100627.56;5009691;28;20162;-64
2023/10/14 10:19:18;;;;;;;12.80;2.97;;;;;;;16.55;65.44;100629.06;5016333;28;20131;-64
2023/10/14 10:22:13;;;;;;;8.75;2.00;;;;;;;16.58;63.96;100610.69;5018425;28;20267;-64
2023/10/14 10:24:41;;;;;;;;;;;;;;;16.64;63.90;100607.00;5018873;28;20068;-64
2023/10/14 10:27:10;;;;;;;11.43;2.80;;;;;;;16.37;61.58;100563.63;5016769;28;20003;-69
2023/10/14 10:29:58;;;;;;;9.50;2.30;;;;;;;16.20;62.30;100598.97;5016107;28;20045;-64
2023/10/14 10:32:31;;;;;;;7.53;1.95;;;;;;;16.08;62.55;100603.75;5015430;28;20033;-64
2023/10/14 10:35:05;;;;;;;9.90;1.73;;;;;;;15.75;62.31;100597.88;5019735;28;20148;-64
2023/10/14 10:37:33;;;;;;;13.13;2.65;;;;;;;15.43;62.27;100616.25;5016238;28;20041;-64
2023/10/14 10:39:59;;;;;;;11.48;2.38;;;;;;;15.06;62.44;100613.88;5020920;28;20037;-64
2023/10/14 10:42:25;;;;;;;11.43;2.60;;;;;;;14.89;63.63;100648.19;5013100;28;20042;-64
2023/10/14 10:44:50;;;;;;;7.68;1.83;;;;;;;14.68;64.73;100663.53;5017736;28;21060;-64
2023/10/14 10:47:16;;;;;;;9.88;2.30;;;;;;;14.82;65.65;100690.88;5015046;28;20037;-64
2023/10/14 10:49:58;;;;;;;8.30;1.90;;;;;;;14.82;63.69;100651.00;5014273;28;20124;-64
2023/10/14 10:52:25;;;;;;;14.55;2.75;;;;;;;14.85;64.83;100661.31;5018129;28;20133;-63
2023/10/14 10:54:52;;;;;;;12.00;2.50;;;;;;;15.02;65.28;100680.78;5019324;28;20368;-64
2023/10/14 10:57:17;;;;;;;6.82;1.85;;;;;;;15.06;62.17;100606.91;5019435;28;20082;-64
2023/10/14 10:59:43;;;;;;;11.55;2.08;;;;;;;15.26;62.28;100611.53;5011430;28;20034;-63
2023/10/14 11:02:10;;;;;;;17.15;3.38;;;;;;;15.38;61.18;100590.31;5013908;28;20072;-62
2023/10/14 11:04:41;;;;;;;9.35;2.47;;;;;;;15.57;59.97;100574.97;5009371;28;20049;-62
2023/10/14 11:07:09;;;;;;;7.57;1.90;;;;;;;15.88;59.07;100554.84;5013749;28;20041;-62
2023/10/14 11:09:39;;;;;;;5.43;2.20;;;;;;;15.95;57.79;100547.69;5014773;28;20045;-62
2023/10/14 11:12:05;;;;;;;10.73;2.30;;;;;;;15.92;58.43;100566.03;5012126;28;20052;-62
2023/10/14 11:14:31;;;;;;;11.43;2.10;;;;;;;16.02;59.23;100572.66;5013218;28;20033;-62
2023/10/14 11:16:57;;;;;;;12.60;2.38;;;;;;;15.72;58.45;100577.97;5012221;28;20107;-63
2023/10/14 11:19:26;;;;;;;7.30;2.10;;;;;;;15.51;59.75;100594.25;5012802;28;20047;-63
2023/10/14 11:21:53;;;;;;;6.85;2.45;;;;;;;15.40;59.80;100593.75;5012784;28;20041;-68
2023/10/14 11:24:19;;;;;;;10.52;2.55;;;;;;;15.20;57.91;100563.09;5014418;28;20036;-68
2023/10/14 11:26:45;;;;;;;13.60;2.22;;;;;;;15.24;57.94;100576.88;5017437;28;20037;-64
2023/10/14 11:29:11;;;;;;;10.70;2.63;;;;;;;15.43;58.39;100579.78;5014547;28;20038;-63
2023/10/14 11:31:39;;;;;;;9.02;2.17;;;;;;;15.67;57.21;100566.84;5013773;28;20605;-64
2023/10/14 11:34:05;;;;;;;10.18;2.17;;;;;;;15.87;56.70;100547.97;5014836;28;20053;-63
2023/10/14 11:36:30;;;;;;;9.60;2.05;;;;;;;16.17;56.60;100553.88;5013086;28;20038;-68
2023/10/14 11:38:58;;;;;;;7.32;2.45;;;;;;;16.37;57.41;100559.25;5013170;28;20063;-68
2023/10/14 11:41:25;;;;;;;8.00;2.03;;;;;;;16.40;56.51;100542.63;5017299;28;20041;-68
2023/10/14 11:43:51;;;;;;;9.50;2.00;;;;;;;16.39;57.74;100580.06;5015815;28;20072;-69
2023/10/14 11:46:17;;;;;;;10.13;2.05;;;;;;;15.96;56.41;100554.63;5011566;28;20033;-68
2023/10/14 11:48:47;;;;;;;9.93;2.10;;;;;;;15.75;57.51;100585.69;5016973;28;20048;-67
2023/10/14 11:51:19;;;;;;;9.20;1.80;;;;;;;15.68;57.96;100591.16;5002971;28;20046;-66
2023/10/14 11:53:50;;;;;;;9.68;1.60;;;;;;;15.49;58.03;100590.00;5012445;28;20030;-67
2023/10/14 11:56:16;;;;;;;10.77;1.98;;;;;;;15.30;57.06;100579.28;5011036;28;20117;-66